Time;durP1;ratioP1;P1;durP2;ratioP2;P2;SDS_P1;SDS_P2;PMS_P1;PMS_P2;Temp;Humidity;BMP_temperature;BMP_pressure;BME280_temperature;BME280_humidity;BME280_pressure;Samples;Min_cycle;Max_cycle;Signal;HPM_P1;HPM_P2
2023/08/22 00:02:04;;;;;;;3.58;0.98;;;24.30;67.80;;;;;;5069288;28;20036;-70
2023/08/22 00:04:30;;;;;;;2.53;1.10;;;24.30;67.20;;;;;;5072035;28;20032;-71
2023/08/22 00:06:55;;;;;;;1.45;0.80;;;24.20;67.10;;;;;;5071200;28;20093;-71
2023/08/22 00:09:21;;;;;;;2.55;0.95;;;24.20;67.20;;;;;;5070939;28;20127;-71
2023/08/22 00:11:47;;;;;;;1.48;0.70;;;24.20;67.20;;;;;;5104435;28;20048;-71
2023/08/22 00:14:12;;;;;;;1.70;0.80;;;24.20;67.20;;;;;;5070830;28;20404;-71
2023/08/22 00:16:38;;;;;;;1.65;0.80;;;24.20;67.30;;;;;;5074038;28;20132;-71
2023/08/22 00:19:03;;;;;;;1.20;0.70;;;24.20;67.20;;;;;;5075628;28;20045;-71
2023/08/22 00:21:30;;;;;;;1.48;0.70;;;24.20;67.30;;;;;;5074223;28;20071;-71
2023/08/22 00:23:57;;;;;;;2.65;0.93;;;24.20;67.30;;;;;;5074106;28;20060;-71
2023/08/22 00:26:23;;;;;;;2.70;0.98;;;24.20;67.20;;;;;;5074262;28;20044;-71
2023/08/22 00:28:48;;;;;;;2.28;0.80;;;24.20;67.30;;;;;;5074873;28;20131;-71
2023/08/22 00:31:14;;;;;;;1.27;0.63;;;24.20;67.30;;;;;;5074876;28;20123;-71
2023/08/22 00:33:39;;;;;;;2.10;0.85;;;24.20;67.30;;;;;;5075525;28;20094;-71
2023/08/22 00:36:05;;;;;;;1.73;0.90;;;24.20;67.30;;;;;;5074301;28;20063;-71
2023/08/22 00:38:31;;;;;;;0.95;0.55;;;24.20;67.30;;;;;;5073862;28;20137;-71
2023/08/22 00:40:56;;;;;;;2.10;0.70;;;24.20;67.40;;;;;;5075585;28;20040;-71
2023/08/22 00:43:22;;;;;;;2.50;0.90;;;24.20;67.40;;;;;;5074942;28;20040;-71
2023/08/22 00:45:47;;;;;;;1.40;0.90;;;24.20;67.40;;;;;;5075435;28;20080;-71
2023/08/22 00:48:13;;;;;;;1.90;0.80;;;24.20;67.40;;;;;;5074048;28;20131;-71
2023/08/22 00:50:39;;;;;;;2.35;0.90;;;24.20;67.50;;;;;;5056449;28;20044;-71
2023/08/22 00:53:04;;;;;;;1.45;0.70;;;24.20;67.40;;;;;;5056228;28;20400;-71
2023/08/22 00:55:30;;;;;;;1.23;0.52;;;24.20;67.40;;;;;;5056155;28;20033;-71
2023/08/22 00:57:58;;;;;;;2.13;0.70;;;24.20;67.50;;;;;;5056070;28;20041;-71
2023/08/22 01:00:27;;;;;;;2.53;0.70;;;24.20;67.50;;;;;;5057749;28;20384;-71
2023/08/22 01:02:53;;;;;;;2.38;0.85;;;24.20;67.50;;;;;;5067849;28;20051;-70
2023/08/22 01:05:19;;;;;;;1.50;0.80;;;24.10;67.40;;;;;;5061056;28;20048;-71
2023/08/22 01:08:04;;;;;;;2.58;0.90;;;24.10;67.50;;;;;;5053418;28;20041;-71
2023/08/22 01:10:35;;;;;;;1.40;0.77;;;24.20;67.50;;;;;;5053211;28;20037;-71
2023/08/22 01:13:25;;;;;;;1.48;0.70;;;24.10;67.50;;;;;;5036682;28;20083;-71
2023/08/22 01:15:50;;;;;;;2.17;1.10;;;24.10;67.50;;;;;;5054566;28;20493;-71
2023/08/22 01:18:18;;;;;;;1.52;0.95;;;24.10;67.50;;;;;;5035515;28;20158;-71
2023/08/22 01:20:44;;;;;;;1.08;0.77;;;24.10;67.50;;;;;;5036709;28;20114;-70
2023/08/22 01:23:09;;;;;;;1.58;0.60;;;24.10;67.50;;;;;;5054155;28;20083;-71
2023/08/22 01:25:35;;;;;;;2.03;0.77;;;24.10;67.60;;;;;;5052743;28;20545;-70
2023/08/22 01:28:11;;;;;;;3.53;0.90;;;24.10;67.60;;;;;;5037187;28;20044;-70
2023/08/22 01:30:50;;;;;;;2.28;1.00;;;24.10;67.60;;;;;;5073380;28;20484;-70
2023/08/22 01:33:26;;;;;;;1.58;0.70;;;24.10;67.60;;;;;;5071900;28;20509;-70
2023/08/22 01:35:53;;;;;;;1.50;0.77;;;24.10;67.60;;;;;;5056145;28;20063;-70
2023/08/22 01:38:19;;;;;;;1.97;0.90;;;24.10;67.60;;;;;;5072072;28;20381;-71
2023/08/22 01:40:45;;;;;;;1.50;0.68;;;24.10;67.60;;;;;;5073478;28;20051;-71
2023/08/22 01:43:10;;;;;;;2.25;0.70;;;24.10;67.60;;;;;;5073328;28;20040;-71
2023/08/22 01:45:36;;;;;;;2.17;0.73;;;24.10;67.60;;;;;;5073889;28;20048;-70
2023/08/22 01:48:02;;;;;;;2.35;0.70;;;24.10;67.70;;;;;;5073645;28;20044;-70
2023/08/22 01:50:27;;;;;;;1.73;0.88;;;24.10;67.70;;;;;;5055659;28;20051;-70
2023/08/22 01:52:53;;;;;;;1.35;0.70;;;24.10;67.70;;;;;;5072272;28;20131;-70
2023/08/22 01:55:19;;;;;;;1.52;0.75;;;24.00;67.60;;;;;;5072869;28;20044;-70
2023/08/22 01:57:45;;;;;;;1.15;0.68;;;24.10;68.30;;;;;;5072405;28;20462;-70
2023/08/22 02:00:11;;;;;;;1.67;0.70;;;24.00;67.70;;;;;;5073370;28;20052;-70
2023/08/22 02:02:36;;;;;;;2.40;0.82;;;24.00;67.60;;;;;;5072368;28;20044;-70
2023/08/22 02:05:02;;;;;;;0.95;0.70;;;24.00;67.70;;;;;;5073263;28;20048;-69
2023/08/22 02:07:28;;;;;;;1.70;0.88;;;24.00;67.70;;;;;;5072725;28;20048;-70
2023/08/22 02:09:54;;;;;;;1.50;0.73;;;24.10;67.70;;;;;;5071723;28;20056;-70
2023/08/22 02:12:19;;;;;;;2.28;0.80;;;24.00;67.70;;;;;;5071772;28;20047;-70
2023/08/22 02:14:45;;;;;;;2.35;0.70;;;24.00;67.70;;;;;;5071299;28;20051;-67
2023/08/22 02:17:11;;;;;;;1.00;0.60;;;24.00;67.70;;;;;;5072205;28;20037;-67
2023/08/22 02:19:36;;;;;;;0.85;0.60;;;24.00;67.80;;;;;;5072754;28;20040;-67
2023/08/22 02:22:02;;;;;;;1.65;0.80;;;24.00;67.70;;;;;;5071867;28;20044;-67
2023/08/22 02:24:27;;;;;;;1.52;0.70;;;24.00;67.70;;;;;;5073461;28;20470;-67
2023/08/22 02:26:53;;;;;;;2.15;0.70;;;24.00;67.80;;;;;;5071519;28;20102;-67
2023/08/22 02:29:18;;;;;;;1.13;0.68;;;24.00;67.80;;;;;;5072539;28;20040;-66
2023/08/22 02:31:44;;;;;;;1.40;0.70;;;24.00;67.80;;;;;;5073072;28;20036;-67
2023/08/22 02:34:10;;;;;;;1.67;0.60;;;24.00;67.80;;;;;;5073361;28;20105;-67
2023/08/22 02:36:35;;;;;;;1.63;0.75;;;24.00;67.80;;;;;;5070167;28;20400;-66
2023/08/22 02:39:02;;;;;;;1.48;1.00;;;24.00;67.80;;;;;;5071517;28;20052;-67
2023/08/22 02:41:27;;;;;;;1.88;0.82;;;24.00;67.90;;;;;;5071507;28;20047;-66
2023/08/22 02:43:53;;;;;;;2.30;0.70;;;24.00;67.80;;;;;;5072462;28;20036;-67
2023/08/22 02:46:18;;;;;;;0.85;0.55;;;24.00;67.80;;;;;;5073230;28;20040;-67
2023/08/22 02:48:44;;;;;;;1.67;0.80;;;24.00;67.90;;;;;;5072773;28;20037;-68
2023/08/22 02:51:09;;;;;;;1.50;0.77;;;24.00;67.90;;;;;;5070252;28;20435;-66
2023/08/22 02:53:35;;;;;;;1.42;0.90;;;24.00;67.90;;;;;;5072362;28;20059;-66
2023/08/22 02:56:01;;;;;;;1.70;0.90;;;24.00;67.90;;;;;;5072349;28;20044;-66
2023/08/22 02:58:27;;;;;;;2.97;1.00;;;24.00;67.90;;;;;;5072535;28;20040;-67
2023/08/22 03:00:53;;;;;;;1.90;0.73;;;24.00;67.90;;;;;;5072582;28;20403;-66
2023/08/22 03:03:19;;;;;;;0.90;0.70;;;24.00;67.90;;;;;;5072485;28;20039;-67
2023/08/22 03:05:45;;;;;;;1.23;0.88;;;23.90;67.90;;;;;;5072215;28;20040;-66
2023/08/22 03:08:10;;;;;;;1.45;0.70;;;24.00;67.90;;;;;;5071627;28;20553;-66
2023/08/22 03:10:36;;;;;;;1.48;0.80;;;23.90;67.90;;;;;;5071226;28;20450;-67
2023/08/22 03:13:01;;;;;;;1.63;0.70;;;23.90;67.90;;;;;;5071082;28;20067;-69
2023/08/22 03:15:27;;;;;;;1.92;0.90;;;23.90;68.00;;;;;;5070897;28;20554;-69
2023/08/22 03:17:53;;;;;;;1.38;0.80;;;23.90;68.00;;;;;;5071490;28;20044;-68
2023/08/22 03:20:18;;;;;;;1.20;0.60;;;23.90;68.60;;;;;;5071163;28;20060;-68
2023/08/22 03:22:44;;;;;;;1.60;0.63;;;23.90;68.00;;;;;;5070860;28;20384;-68
2023/08/22 03:25:09;;;;;;;0.93;0.70;;;23.90;68.00;;;;;;5071799;28;20081;-68
2023/08/22 03:27:36;;;;;;;1.42;0.52;;;23.90;68.00;;;;;;5104856;28;20507;-68
2023/08/22 03:30:02;;;;;;;1.23;0.68;;;23.90;68.00;;;;;;5071328;28;20064;-68
2023/08/22 03:32:28;;;;;;;1.40;0.73;;;23.90;68.00;;;;;;5070555;28;20068;-68
2023/08/22 03:34:53;;;;;;;1.90;0.80;;;23.90;68.00;;;;;;5071858;28;20161;-67
2023/08/22 03:37:19;;;;;;;1.33;0.80;;;23.90;68.00;;;;;;5069806;28;20545;-68
2023/08/22 03:39:44;;;;;;;1.10;0.70;;;23.90;68.10;;;;;;5070831;28;20040;-68
2023/08/22 03:42:10;;;;;;;2.22;0.90;;;23.90;68.00;;;;;;5072403;28;20061;-68
2023/08/22 03:44:36;;;;;;;1.35;0.70;;;23.90;68.10;;;;;;5072028;28;20178;-69
2023/08/22 03:47:02;;;;;;;1.00;0.60;;;23.90;68.10;;;;;;5071705;28;20047;-68
2023/08/22 03:49:27;;;;;;;1.73;0.73;;;23.90;68.10;;;;;;5071047;28;20051;-68
2023/08/22 03:51:53;;;;;;;1.27;0.68;;;23.90;68.10;;;;;;5075082;28;20040;-68
2023/08/22 03:54:19;;;;;;;1.55;0.70;;;23.90;68.10;;;;;;5074149;28;20111;-68
2023/08/22 03:56:44;;;;;;;1.85;0.70;;;23.90;68.10;;;;;;5075393;28;20041;-68
2023/08/22 03:59:10;;;;;;;1.00;0.60;;;23.90;68.10;;;;;;5076347;28;20450;-68
2023/08/22 04:01:35;;;;;;;1.60;0.77;;;23.80;68.10;;;;;;5065682;28;20396;-68
2023/08/22 04:04:04;;;;;;;1.92;0.70;;;23.80;68.10;;;;;;5070992;28;20049;-68
2023/08/22 04:06:29;;;;;;;1.30;0.70;;;23.80;68.10;;;;;;5073227;28;20090;-68
2023/08/22 04:08:55;;;;;;;1.45;0.73;;;23.80;68.10;;;;;;5074847;28;20041;-68
2023/08/22 04:11:20;;;;;;;1.48;0.70;;;23.80;68.10;;;;;;5075523;28;20487;-68
2023/08/22 04:13:46;;;;;;;1.45;0.80;;;23.80;68.20;;;;;;5073872;28;20083;-68
2023/08/22 04:16:11;;;;;;;1.42;0.70;;;23.80;68.20;;;;;;5076290;28;20403;-68
2023/08/22 04:18:37;;;;;;;1.10;0.60;;;23.80;68.10;;;;;;5075860;28;20028;-67
2023/08/22 04:21:03;;;;;;;1.85;0.77;;;23.80;68.20;;;;;;5075204;28;20365;-68
2023/08/22 04:23:29;;;;;;;1.08;0.80;;;23.80;68.20;;;;;;5075012;28;20565;-68
2023/08/22 04:25:54;;;;;;;2.03;0.73;;;23.80;68.20;;;;;;5074703;28;20056;-68
2023/08/22 04:28:20;;;;;;;1.00;0.60;;;23.80;68.20;;;;;;5075104;28;20032;-68
2023/08/22 04:30:45;;;;;;;0.95;0.70;;;23.80;68.20;;;;;;5075802;28;20169;-68
2023/08/22 04:33:11;;;;;;;1.08;0.50;;;23.80;68.20;;;;;;5075319;28;20140;-68
2023/08/22 04:35:37;;;;;;;1.48;0.82;;;23.80;68.30;;;;;;5074549;28;20044;-68
2023/08/22 04:38:04;;;;;;;1.75;0.65;;;23.80;68.30;;;;;;5075268;28;20080;-68
2023/08/22 04:40:29;;;;;;;0.70;0.60;;;23.80;68.30;;;;;;5075597;28;20052;-68
2023/08/22 04:42:55;;;;;;;1.55;0.90;;;23.80;68.30;;;;;;5074553;28;20033;-68
2023/08/22 04:45:20;;;;;;;1.55;0.60;;;23.70;68.20;;;;;;5074262;28;20040;-68
2023/08/22 04:47:46;;;;;;;2.22;1.00;;;23.80;68.30;;;;;;5073399;28;20033;-68
2023/08/22 04:50:12;;;;;;;1.20;0.77;;;23.70;68.30;;;;;;5074556;28;20468;-68
2023/08/22 04:52:37;;;;;;;0.82;0.57;;;23.70;68.30;;;;;;5073891;28;20116;-68
2023/08/22 04:55:04;;;;;;;1.42;0.75;;;23.80;68.40;;;;;;5075479;28;20135;-68
2023/08/22 04:57:30;;;;;;;1.35;0.60;;;23.70;68.30;;;;;;5074825;28;20032;-68
2023/08/22 04:59:56;;;;;;;2.15;0.88;;;23.70;68.30;;;;;;5074723;28;20392;-68
2023/08/22 05:02:22;;;;;;;1.52;0.60;;;23.70;68.30;;;;;;5072814;28;20040;-68
2023/08/22 05:04:48;;;;;;;1.17;0.70;;;23.70;68.30;;;;;;5074234;28;20076;-67
2023/08/22 05:07:13;;;;;;;1.25;0.70;;;23.70;69.00;;;;;;5075165;28;20036;-68
2023/08/22 05:09:39;;;;;;;1.75;0.70;;;23.70;68.30;;;;;;5075031;28;20086;-68
2023/08/22 05:12:05;;;;;;;2.17;0.90;;;23.70;68.40;;;;;;5074440;28;20455;-68
2023/08/22 05:14:33;;;;;;;2.10;1.02;;;23.70;68.40;;;;;;5073343;28;20075;-68
2023/08/22 05:16:58;;;;;;;1.67;0.60;;;23.70;68.40;;;;;;5074302;28;20041;-68
2023/08/22 05:19:24;;;;;;;1.35;0.80;;;23.70;68.40;;;;;;5074712;28;20037;-68
2023/08/22 05:21:49;;;;;;;2.88;0.85;;;23.70;68.40;;;;;;5074653;28;20044;-68
2023/08/22 05:24:15;;;;;;;1.48;0.80;;;23.70;68.40;;;;;;5072071;28;20067;-68
2023/08/22 05:26:40;;;;;;;1.95;1.10;;;23.70;68.40;;;;;;5074834;28;20123;-68
2023/08/22 05:29:06;;;;;;;1.00;0.70;;;23.70;68.40;;;;;;5072422;28;20361;-68
2023/08/22 05:31:32;;;;;;;2.10;0.80;;;23.70;69.10;;;;;;5072994;28;20154;-68
2023/08/22 05:33:58;;;;;;;1.25;0.75;;;23.70;68.40;;;;;;5073619;28;20070;-68
2023/08/22 05:36:23;;;;;;;2.25;0.75;;;23.70;68.50;;;;;;5074525;28;20110;-68
2023/08/22 05:38:49;;;;;;;1.23;0.60;;;23.70;68.50;;;;;;5072564;28;20044;-68
2023/08/22 05:41:16;;;;;;;0.88;0.60;;;23.70;68.50;;;;;;5072995;28;20499;-68
2023/08/22 05:43:42;;;;;;;0.60;0.60;;;23.70;68.50;;;;;;5074414;28;20495;-68
2023/08/22 05:46:08;;;;;;;0.98;0.60;;;23.70;68.50;;;;;;5073369;28;20137;-68
2023/08/22 05:48:33;;;;;;;1.92;0.70;;;23.70;68.50;;;;;;5073809;28;20054;-68
2023/08/22 05:51:01;;;;;;;1.70;0.77;;;23.70;68.50;;;;;;5074435;28;20044;-68
2023/08/22 05:53:27;;;;;;;1.55;0.68;;;23.70;68.50;;;;;;5073429;28;20496;-68
2023/08/22 05:55:52;;;;;;;1.75;0.70;;;23.70;68.50;;;;;;5072814;28;20087;-68
2023/08/22 05:58:18;;;;;;;2.80;0.90;;;23.70;68.50;;;;;;5073099;28;20488;-69
2023/08/22 06:00:44;;;;;;;1.30;0.70;;;23.70;68.60;;;;;;5072296;28;20396;-69
2023/08/22 06:03:10;;;;;;;1.33;0.80;;;23.70;68.60;;;;;;5074082;28;20392;-69
2023/08/22 06:05:35;;;;;;;2.05;0.80;;;23.70;68.60;;;;;;5073840;28;20123;-68
2023/08/22 06:08:01;;;;;;;2.67;0.88;;;23.70;68.60;;;;;;5073075;28;20044;-68
2023/08/22 06:10:26;;;;;;;1.42;0.90;;;23.70;68.60;;;;;;5073691;28;20040;-67
2023/08/22 06:12:52;;;;;;;2.20;0.90;;;23.70;68.60;;;;;;5073283;28;20051;-67
2023/08/22 06:15:17;;;;;;;2.80;0.90;;;23.70;68.60;;;;;;5072773;28;20504;-67
2023/08/22 06:17:43;;;;;;;4.25;0.82;;;23.70;68.60;;;;;;5072023;28;20040;-66
2023/08/22 06:20:09;;;;;;;2.50;0.82;;;23.80;68.70;;;;;;5072429;28;20041;-68
2023/08/22 06:22:34;;;;;;;3.45;0.82;;;23.80;68.70;;;;;;5071628;28;20131;-68
2023/08/22 06:25:00;;;;;;;4.20;1.10;;;23.70;68.60;;;;;;5073194;28;20052;-68
2023/08/22 06:27:25;;;;;;;1.73;0.90;;;23.80;68.70;;;;;;5071801;28;20072;-68
2023/08/22 06:29:51;;;;;;;7.15;1.33;;;23.80;68.70;;;;;;5072213;28;20048;-65
2023/08/22 06:32:21;;;;;;;4.63;1.70;;;23.80;68.60;;;;;;5072549;28;20032;-66
2023/08/22 06:34:46;;;;;;;8.63;4.43;;;23.80;68.50;;;;;;5071969;28;20052;-65
2023/08/22 06:37:12;;;;;;;9.88;5.45;;;23.80;68.20;;;;;;5072111;28;20043;-63
2023/08/22 06:39:39;;;;;;;8.80;5.40;;;23.80;67.70;;;;;;5073105;28;20597;-63
2023/08/22 06:42:05;;;;;;;9.93;5.50;;;23.70;67.40;;;;;;5071352;28;20348;-63
2023/08/22 06:44:30;;;;;;;12.35;6.07;;;23.70;67.20;;;;;;5071983;28;20052;-64
2023/08/22 06:46:56;;;;;;;11.02;5.15;;;23.70;67.00;;;;;;5071922;28;20055;-64
2023/08/22 06:49:21;;;;;;;13.13;6.43;;;23.70;67.00;;;;;;5072584;28;20446;-63
2023/08/22 06:51:47;;;;;;;8.95;5.45;;;23.70;66.90;;;;;;5071516;28;20068;-64
2023/08/22 06:54:12;;;;;;;11.57;5.30;;;23.70;66.80;;;;;;5072032;28;20036;-64
2023/08/22 06:56:38;;;;;;;13.20;5.85;;;23.70;66.80;;;;;;5062176;28;20068;-66
2023/08/22 06:59:04;;;;;;;9.52;5.38;;;23.70;66.60;;;;;;5052979;28;20045;-66
2023/08/22 07:01:29;;;;;;;10.38;5.22;;;23.70;66.50;;;;;;5070163;28;20099;-66
2023/08/22 07:03:55;;;;;;;11.90;5.40;;;23.70;66.50;;;;;;5071718;28;20459;-65
2023/08/22 07:06:20;;;;;;;9.68;4.50;;;23.70;66.60;;;;;;5053777;28;20043;-65
2023/08/22 07:08:46;;;;;;;9.45;4.30;;;23.70;66.50;;;;;;5052442;28;20090;-65
2023/08/22 07:11:12;;;;;;;13.50;4.50;;;23.70;66.60;;;;;;5051116;28;20489;-64
2023/08/22 07:13:37;;;;;;;12.43;5.13;;;23.70;66.60;;;;;;5052863;28;20044;-64
2023/08/22 07:16:03;;;;;;;9.02;5.07;;;23.70;66.50;;;;;;5051900;28;20067;-65
2023/08/22 07:18:29;;;;;;;8.77;4.50;;;23.70;66.90;;;;;;5052190;28;20186;-64
2023/08/22 07:20:55;;;;;;;9.35;4.55;;;23.70;66.20;;;;;;5050945;28;20045;-64
2023/08/22 07:23:21;;;;;;;10.10;4.80;;;23.70;66.10;;;;;;5051310;28;20061;-64
2023/08/22 07:25:48;;;;;;;7.32;4.45;;;23.70;65.90;;;;;;5051431;28;20037;-62
2023/08/22 07:28:14;;;;;;;13.77;5.00;;;23.60;65.80;;;;;;5058840;28;20162;-65
2023/08/22 07:30:40;;;;;;;8.55;4.18;;;23.60;65.80;;;;;;5070370;28;20045;-65
2023/08/22 07:33:06;;;;;;;10.25;4.50;;;23.60;65.80;;;;;;5071304;28;20028;-65
2023/08/22 07:35:34;;;;;;;9.15;4.15;;;23.60;65.80;;;;;;5070919;28;20067;-64
2023/08/22 07:37:59;;;;;;;;;;;23.60;65.80;;;;;;5072532;28;20077;-64
2023/08/22 07:40:25;;;;;;;10.07;4.80;;;23.60;65.80;;;;;;5071854;28;20036;-65
2023/08/22 07:42:50;;;;;;;7.80;3.65;;;23.60;65.90;;;;;;5071184;28;20039;-65
2023/08/22 07:45:16;;;;;;;9.07;3.50;;;23.60;65.90;;;;;;5070359;28;20037;-64
2023/08/22 07:47:42;;;;;;;10.35;3.85;;;23.60;65.90;;;;;;5072009;28;20044;-65
2023/08/22 07:50:08;;;;;;;9.95;3.58;;;23.60;66.00;;;;;;5072800;28;20044;-65
2023/08/22 07:52:35;;;;;;;8.05;3.30;;;23.60;66.00;;;;;;5071214;28;20393;-64
2023/08/22 07:55:00;;;;;;;9.63;3.78;;;23.60;66.00;;;;;;5072700;28;20076;-65
2023/08/22 07:57:26;;;;;;;10.27;3.00;;;23.60;65.70;;;;;;5072574;28;20095;-64
2023/08/22 07:59:52;;;;;;;5.55;3.10;;;23.60;65.60;;;;;;5070203;28;20460;-66
2023/08/22 08:02:17;;;;;;;8.73;3.40;;;23.60;65.60;;;;;;5072489;28;20392;-66
2023/08/22 08:04:43;;;;;;;7.45;2.88;;;23.60;65.50;;;;;;5071982;28;20047;-65
2023/08/22 08:07:08;;;;;;;7.78;3.00;;;23.60;65.50;;;;;;5070311;28;20447;-66
2023/08/22 08:09:34;;;;;;;7.60;3.25;;;23.70;65.40;;;;;;5072013;28;20047;-66
2023/08/22 08:12:00;;;;;;;9.90;3.92;;;23.60;65.20;;;;;;5070940;28;20123;-66
2023/08/22 08:14:25;;;;;;;8.45;3.10;;;23.70;65.20;;;;;;5069729;28;20048;-65
2023/08/22 08:16:51;;;;;;;6.68;2.55;;;23.70;65.20;;;;;;5071039;28;20070;-64
2023/08/22 08:19:17;;;;;;;6.32;2.85;;;23.70;65.30;;;;;;5072058;28;20045;-65
2023/08/22 08:21:42;;;;;;;8.48;3.05;;;23.70;65.20;;;;;;5070102;28;20041;-65
2023/08/22 08:24:08;;;;;;;7.05;2.90;;;23.70;65.10;;;;;;5072041;28;20488;-64
2023/08/22 08:26:33;;;;;;;8.38;2.95;;;23.70;64.80;;;;;;5071608;28;20093;-64
2023/08/22 08:28:59;;;;;;;7.30;2.42;;;23.70;64.70;;;;;;5071015;28;20052;-65
2023/08/22 08:31:25;;;;;;;7.55;3.10;;;23.70;64.60;;;;;;5071448;28;20097;-64
2023/08/22 08:33:50;;;;;;;5.90;2.50;;;23.70;64.20;;;;;;5070758;28;20029;-65
2023/08/22 08:36:16;;;;;;;5.70;2.25;;;23.70;64.00;;;;;;5071815;28;20064;-65
2023/08/22 08:38:42;;;;;;;7.47;2.35;;;23.70;64.00;;;;;;5074236;28;20036;-65
2023/08/22 08:41:07;;;;;;;6.68;2.10;;;23.70;63.60;;;;;;5073168;28;20036;-65
2023/08/22 08:43:33;;;;;;;5.45;1.70;;;23.70;63.20;;;;;;5054782;28;20037;-66
2023/08/22 08:45:58;;;;;;;4.35;1.75;;;23.70;62.90;;;;;;5054449;28;20052;-65
2023/08/22 08:48:24;;;;;;;5.22;1.20;;;23.70;62.70;;;;;;5058894;28;20436;-66
2023/08/22 08:50:50;;;;;;;3.38;1.33;;;23.70;62.50;;;;;;5073908;28;20531;-66
2023/08/22 08:53:17;;;;;;;4.60;1.40;;;23.70;62.40;;;;;;5074453;28;20040;-66
2023/08/22 08:55:43;;;;;;;3.70;1.15;;;23.70;62.10;;;;;;5073477;28;20047;-66
2023/08/22 08:58:08;;;;;;;5.32;1.52;;;23.70;61.80;;;;;;5057865;28;20047;-66
2023/08/22 09:00:34;;;;;;;3.08;1.05;;;23.70;61.50;;;;;;5075049;28;20052;-65
2023/08/22 09:02:59;;;;;;;2.25;1.13;;;23.70;61.50;;;;;;5056497;28;20045;-65
2023/08/22 09:05:25;;;;;;;4.43;1.17;;;23.70;61.50;;;;;;5074880;28;20159;-64
2023/08/22 09:07:51;;;;;;;4.05;1.00;;;23.70;61.50;;;;;;5057791;28;20044;-65
2023/08/22 09:10:35;;;;;;;3.67;1.30;;;23.70;61.30;;;;;;5074429;28;20396;-65
2023/08/22 09:13:03;;;;;;;4.57;1.17;;;23.70;61.50;;;;;;5075144;28;20039;-63
2023/08/22 09:15:29;;;;;;;3.13;1.02;;;23.80;61.60;;;;;;5075012;28;20051;-65
2023/08/22 09:17:55;;;;;;;5.57;1.23;;;23.70;61.50;;;;;;5074134;28;20125;-65
2023/08/22 09:20:20;;;;;;;4.53;0.90;;;23.80;61.50;;;;;;5073477;28;20048;-65
2023/08/22 09:22:46;;;;;;;6.65;1.50;;;23.80;61.60;;;;;;5074828;28;20036;-65
2023/08/22 09:25:12;;;;;;;3.40;1.13;;;23.80;61.60;;;;;;5074006;28;20098;-65
2023/08/22 09:27:37;;;;;;;2.88;0.90;;;23.80;61.30;;;;;;5074640;28;20036;-65
2023/08/22 09:30:04;;;;;;;5.07;1.10;;;23.80;61.10;;;;;;5072546;28;20405;-66
2023/08/22 09:32:30;;;;;;;4.63;1.00;;;23.80;60.70;;;;;;5073666;28;20444;-65
2023/08/22 09:34:58;;;;;;;3.03;0.90;;;23.80;60.50;;;;;;5074199;28;20060;-66
2023/08/22 09:37:36;;;;;;;3.22;0.73;;;23.70;60.20;;;;;;5073967;28;20451;-66
2023/08/22 09:40:05;;;;;;;2.80;0.90;;;23.80;59.80;;;;;;5074730;28;20127;-65
2023/08/22 09:42:30;;;;;;;3.88;0.80;;;23.70;59.70;;;;;;5073727;28;20051;-66
2023/08/22 09:44:56;;;;;;;5.35;0.90;;;23.70;59.70;;;;;;5073475;28;20044;-67
2023/08/22 09:47:29;;;;;;;3.85;1.08;;;23.70;59.80;;;;;;5074822;28;20125;-67
2023/08/22 09:49:56;;;;;;;4.65;0.90;;;23.80;59.90;;;;;;5073931;28;20048;-65
2023/08/22 09:52:23;;;;;;;3.50;0.77;;;23.70;60.00;;;;;;5072552;28;20025;-68
2023/08/22 09:54:49;;;;;;;6.10;1.00;;;23.80;60.20;;;;;;5074078;28;20036;-65
2023/08/22 09:57:15;;;;;;;4.40;1.10;;;23.80;60.50;;;;;;5073046;28;20094;-65
2023/08/22 09:59:41;;;;;;;6.75;1.20;;;23.80;60.70;;;;;;5063182;28;20045;-72
2023/08/22 10:02:07;;;;;;;6.13;1.00;;;23.90;60.90;;;;;;5064432;28;20051;-69
2023/08/22 10:04:33;;;;;;;5.40;1.17;;;23.90;61.20;;;;;;5072364;28;20189;-68
2023/08/22 10:06:58;;;;;;;5.90;1.20;;;23.90;61.30;;;;;;5055337;28;20540;-69
2023/08/22 10:09:24;;;;;;;4.32;1.20;;;23.90;61.30;;;;;;5055944;28;20469;-68
2023/08/22 10:12:01;;;;;;;2.90;1.10;;;24.00;61.50;;;;;;5072175;28;20040;-69
2023/08/22 10:14:27;;;;;;;5.95;1.00;;;24.00;61.60;;;;;;5055654;28;20052;-68
2023/08/22 10:16:54;;;;;;;4.75;1.17;;;24.00;61.70;;;;;;5072502;28;20055;-68
2023/08/22 10:19:20;;;;;;;5.30;1.00;;;24.00;61.80;;;;;;5056050;28;20174;-68
2023/08/22 10:21:46;;;;;;;6.55;1.30;;;24.00;61.90;;;;;;5073213;28;20036;-69
2023/08/22 10:24:32;;;;;;;6.90;1.33;;;24.00;62.00;;;;;;5073906;28;20510;-68
2023/08/22 10:27:00;;;;;;;6.57;1.00;;;24.00;62.10;;;;;;5070185;28;20047;-68
2023/08/22 10:29:41;;;;;;;6.00;1.00;;;24.00;62.00;;;;;;5073723;28;20052;-69
2023/08/22 10:32:06;;;;;;;5.35;0.93;;;24.10;62.20;;;;;;5073103;28;20245;-69
2023/08/22 10:34:38;;;;;;;5.07;1.08;;;24.10;62.20;;;;;;5072507;28;20556;-68
2023/08/22 10:37:28;;;;;;;5.93;0.80;;;24.10;62.10;;;;;;5073394;28;20067;-68
2023/08/22 10:39:57;;;;;;;4.43;1.10;;;24.10;62.00;;;;;;5073383;28;20055;-67
2023/08/22 10:42:23;;;;;;;4.82;0.90;;;24.10;62.30;;;;;;5071529;28;20562;-67
2023/08/22 10:44:49;;;;;;;3.60;1.00;;;24.10;62.30;;;;;;5072088;28;20106;-68
2023/08/22 10:47:25;;;;;;;6.85;1.33;;;24.10;62.30;;;;;;5073122;28;20182;-67
2023/08/22 10:49:52;;;;;;;5.38;1.00;;;24.10;62.60;;;;;;5071231;28;20083;-69
2023/08/22 10:52:22;;;;;;;6.05;1.30;;;24.10;62.70;;;;;;5072019;28;20056;-68
2023/08/22 10:55:09;;;;;;;2.67;0.80;;;24.10;62.80;;;;;;5071101;28;20044;-67
2023/08/22 10:57:37;;;;;;;4.72;1.02;;;24.20;62.90;;;;;;5071849;28;20047;-68
2023/08/22 11:00:19;;;;;;;4.53;0.98;;;24.20;62.70;;;;;;5072206;28;20476;-67
2023/08/22 11:02:49;;;;;;;3.85;1.23;;;24.20;62.70;;;;;;5070678;28;20044;-67
2023/08/22 11:05:15;;;;;;;3.90;0.82;;;24.20;62.60;;;;;;5071469;28;20041;-65
2023/08/22 11:07:42;;;;;;;4.05;1.10;;;24.20;62.10;;;;;;5072842;28;20094;-66
2023/08/22 11:10:10;;;;;;;2.85;0.98;;;24.10;61.10;;;;;;5072099;28;20057;-66
2023/08/22 11:12:35;;;;;;;2.88;0.80;;;24.10;60.20;;;;;;5071470;28;20044;-66
2023/08/22 11:15:01;;;;;;;5.60;1.13;;;24.00;59.80;;;;;;5070365;28;20044;-67
2023/08/22 11:17:26;;;;;;;6.28;1.20;;;24.10;59.30;;;;;;5065281;28;20055;-67
2023/08/22 11:19:53;;;;;;;4.25;0.75;;;24.00;59.00;;;;;;5054379;28;20127;-66
2023/08/22 11:22:19;;;;;;;2.63;0.70;;;24.00;59.10;;;;;;5071822;28;20044;-68
2023/08/22 11:24:50;;;;;;;5.18;1.00;;;24.00;59.20;;;;;;5070520;28;20044;-68
2023/08/22 11:27:16;;;;;;;2.95;0.95;;;24.00;59.30;;;;;;5052722;28;20049;-68
2023/08/22 11:29:44;;;;;;;4.13;0.90;;;24.00;59.30;;;;;;5051904;28;20049;-66
2023/08/22 11:32:22;;;;;;;2.15;0.70;;;24.00;59.30;;;;;;5052863;28;20049;-67
2023/08/22 11:34:49;;;;;;;4.35;0.80;;;24.00;59.50;;;;;;5052246;28;20056;-66
2023/08/22 11:37:15;;;;;;;3.40;1.33;;;24.00;59.60;;;;;;5054196;28;20555;-65
2023/08/22 11:39:50;;;;;;;4.03;0.88;;;24.00;59.70;;;;;;5066898;28;20476;-68
2023/08/22 11:42:16;;;;;;;5.68;1.00;;;24.00;60.40;;;;;;5055508;28;20068;-67
2023/08/22 11:45:03;;;;;;;5.22;1.23;;;24.00;60.10;;;;;;5071431;28;20480;-66
2023/08/22 11:47:39;;;;;;;11.50;1.38;;;24.00;60.40;;;;;;5070788;28;20046;-66
2023/08/22 11:50:05;;;;;;;7.68;1.25;;;24.00;60.60;;;;;;5072324;28;20121;-66
2023/08/22 11:52:31;;;;;;;9.13;1.02;;;24.10;60.60;;;;;;5071853;28;20177;-66
2023/08/22 11:55:07;;;;;;;8.23;1.20;;;24.10;60.80;;;;;;5072185;28;20101;-69
2023/08/22 11:57:34;;;;;;;5.20;0.98;;;24.10;61.00;;;;;;5072423;28;20492;-67
2023/08/22 12:00:04;;;;;;;7.07;1.10;;;24.10;61.00;;;;;;5070597;28;20075;-68
2023/08/22 12:02:30;;;;;;;8.02;1.05;;;24.10;61.00;;;;;;5071852;28;20170;-67
2023/08/22 12:04:55;;;;;;;3.95;1.05;;;24.10;61.00;;;;;;5069856;28;20505;-68
2023/08/22 12:07:24;;;;;;;6.10;1.02;;;24.10;61.10;;;;;;5062931;28;20056;-68
2023/08/22 12:10:03;;;;;;;5.55;1.02;;;24.10;61.10;;;;;;5070912;28;20047;-68
2023/08/22 12:12:30;;;;;;;6.63;1.00;;;24.10;61.20;;;;;;5074286;28;20051;-68
2023/08/22 12:14:55;;;;;;;4.95;1.05;;;24.10;61.20;;;;;;5075754;28;20555;-68
2023/08/22 12:17:21;;;;;;;4.95;1.40;;;24.10;61.90;;;;;;5075324;28;20127;-68
2023/08/22 12:19:47;;;;;;;3.03;0.90;;;24.10;61.30;;;;;;5075136;28;20502;-68
2023/08/22 12:22:12;;;;;;;6.28;1.15;;;24.20;61.40;;;;;;5071428;28;20040;-67
2023/08/22 12:24:38;;;;;;;3.30;1.05;;;24.10;61.40;;;;;;5074798;28;20048;-67
2023/08/22 12:27:03;;;;;;;3.38;1.00;;;24.20;61.60;;;;;;5075071;28;20036;-67
2023/08/22 12:29:29;;;;;;;2.95;1.00;;;24.20;61.60;;;;;;5074948;28;20156;-67
2023/08/22 12:31:54;;;;;;;5.13;1.00;;;24.20;61.70;;;;;;5075675;28;20524;-68
2023/08/22 12:34:20;;;;;;;2.92;0.90;;;24.20;61.70;;;;;;5075050;28;20037;-67
2023/08/22 12:36:46;;;;;;;5.25;0.80;;;24.20;61.80;;;;;;5074088;28;20048;-68
2023/08/22 12:39:12;;;;;;;5.28;1.00;;;24.20;61.90;;;;;;5074582;28;20094;-68
2023/08/22 12:41:40;;;;;;;5.07;1.00;;;24.20;61.90;;;;;;5073311;28;20048;-68
2023/08/22 12:44:06;;;;;;;5.13;0.90;;;24.20;62.00;;;;;;5074535;28;20037;-67